sensor_id;sensor_type;location;lat;lon;timestamp;temperature;humidity
13245;DHT22;6689;53.400;12.486;2023-07-22T00:00:05;17.50;99.90
13245;DHT22;6689;53.400;12.486;2023-07-22T00:02:37;17.50;99.90
13245;DHT22;6689;53.400;12.486;2023-07-22T00:05:07;17.50;99.90
13245;DHT22;6689;53.400;12.486;2023-07-22T00:07:38;17.50;99.90
13245;DHT22;6689;53.400;12.486;2023-07-22T00:10:16;17.50;99.90
13245;DHT22;6689;53.400;12.486;2023-07-22T00:12:43;17.40;99.90
13245;DHT22;6689;53.400;12.486;2023-07-22T00:15:10;17.40;99.90
13245;DHT22;6689;53.400;12.486;2023-07-22T00:17:40;17.40;99.90
13245;DHT22;6689;53.400;12.486;2023-07-22T00:20:08;17.30;99.90
13245;DHT22;6689;53.400;12.486;2023-07-22T00:22:39;17.40;99.90
13245;DHT22;6689;53.400;12.486;2023-07-22T00:25:09;17.30;99.90
13245;DHT22;6689;53.400;12.486;2023-07-22T00:27:37;17.30;99.90
13245;DHT22;6689;53.400;12.486;2023-07-22T00:30:05;17.20;99.90
13245;DHT22;6689;53.400;12.486;2023-07-22T00:32:33;17.20;99.90
13245;DHT22;6689;53.400;12.486;2023-07-22T00:35:03;17.20;99.90
13245;DHT22;6689;53.400;12.486;2023-07-22T00:37:30;17.20;99.90
13245;DHT22;6689;53.400;12.486;2023-07-22T00:40:11;17.10;99.90
13245;DHT22;6689;53.400;12.486;2023-07-22T00:42:40;17.10;99.90
13245;DHT22;6689;53.400;12.486;2023-07-22T00:45:08;17.10;99.90
13245;DHT22;6689;53.400;12.486;2023-07-22T00:47:35;17.00;1.00
13245;DHT22;6689;53.400;12.486;2023-07-22T00:50:05;17.00;1.00
13245;DHT22;6689;53.400;12.486;2023-07-22T00:52:34;17.10;1.00
13245;DHT22;6689;53.400;12.486;2023-07-22T00:55:06;17.00;1.00
13245;DHT22;6689;53.400;12.486;2023-07-22T00:57:37;17.10;1.00
13245;DHT22;6689;53.400;12.486;2023-07-22T01:00:05;17.10;1.00
13245;DHT22;6689;53.400;12.486;2023-07-22T01:02:37;17.00;1.00
13245;DHT22;6689;53.400;12.486;2023-07-22T01:05:05;17.00;1.00
13245;DHT22;6689;53.400;12.486;2023-07-22T01:07:33;17.00;1.00
13245;DHT22;6689;53.400;12.486;2023-07-22T01:10:03;16.90;1.00
13245;DHT22;6689;53.400;12.486;2023-07-22T01:12:34;17.00;1.00
13245;DHT22;6689;53.400;12.486;2023-07-22T01:15:01;16.90;1.00
13245;DHT22;6689;53.400;12.486;2023-07-22T01:17:33;16.80;1.00
13245;DHT22;6689;53.400;12.486;2023-07-22T01:20:01;16.70;1.00
13245;DHT22;6689;53.400;12.486;2023-07-22T01:22:31;16.60;1.00
13245;DHT22;6689;53.400;12.486;2023-07-22T01:25:00;16.60;1.00
13245;DHT22;6689;53.400;12.486;2023-07-22T01:27:28;16.50;1.00
13245;DHT22;6689;53.400;12.486;2023-07-22T01:29:55;16.50;1.00
13245;DHT22;6689;53.400;12.486;2023-07-22T01:32:25;16.60;1.00
13245;DHT22;6689;53.400;12.486;2023-07-22T01:34:52;16.60;1.00
13245;DHT22;6689;53.400;12.486;2023-07-22T01:37:20;16.60;1.00
13245;DHT22;6689;53.400;12.486;2023-07-22T01:39:47;16.50;1.00
13245;DHT22;6689;53.400;12.486;2023-07-22T01:42:17;16.40;1.00
13245;DHT22;6689;53.400;12.486;2023-07-22T01:44:45;16.40;1.00
13245;DHT22;6689;53.400;12.486;2023-07-22T01:47:12;16.40;1.00
13245;DHT22;6689;53.400;12.486;2023-07-22T01:49:39;16.30;1.00
13245;DHT22;6689;53.400;12.486;2023-07-22T01:52:07;16.30;1.00
13245;DHT22;6689;53.400;12.486;2023-07-22T01:54:34;16.30;1.00
13245;DHT22;6689;53.400;12.486;2023-07-22T01:57:01;16.20;1.00
13245;DHT22;6689;53.400;12.486;2023-07-22T01:59:30;16.20;1.00
13245;DHT22;6689;53.400;12.486;2023-07-22T02:01:57;16.20;1.00
13245;DHT22;6689;53.400;12.486;2023-07-22T02:04:25;16.20;1.00
13245;DHT22;6689;53.400;12.486;2023-07-22T02:06:52;16.10;1.00
13245;DHT22;6689;53.400;12.486;2023-07-22T02:09:23;16.10;1.00
13245;DHT22;6689;53.400;12.486;2023-07-22T02:11:50;16.00;1.00
13245;DHT22;6689;53.400;12.486;2023-07-22T02:14:19;16.00;1.00
13245;DHT22;6689;53.400;12.486;2023-07-22T02:16:48;16.00;1.00
13245;DHT22;6689;53.400;12.486;2023-07-22T02:19:15;16.00;1.00
13245;DHT22;6689;53.400;12.486;2023-07-22T02:21:42;16.00;1.00
13245;DHT22;6689;53.400;12.486;2023-07-22T02:24:12;15.90;1.00
13245;DHT22;6689;53.400;12.486;2023-07-22T02:26:41;15.90;1.00
13245;DHT22;6689;53.400;12.486;2023-07-22T02:29:09;15.90;1.00
13245;DHT22;6689;53.400;12.486;2023-07-22T02:31:37;15.80;1.00
13245;DHT22;6689;53.400;12.486;2023-07-22T02:34:07;15.70;1.00
13245;DHT22;6689;53.400;12.486;2023-07-22T02:36:34;15.70;1.00
13245;DHT22;6689;53.400;12.486;2023-07-22T02:39:01;15.60;1.00
13245;DHT22;6689;53.400;12.486;2023-07-22T02:41:29;15.60;1.00
13245;DHT22;6689;53.400;12.486;2023-07-22T02:43:56;15.50;1.00
13245;DHT22;6689;53.400;12.486;2023-07-22T02:46:24;15.50;1.00
13245;DHT22;6689;53.400;12.486;2023-07-22T02:48:51;15.40;1.00
13245;DHT22;6689;53.400;12.486;2023-07-22T02:51:19;15.30;1.00
13245;DHT22;6689;53.400;12.486;2023-07-22T02:53:47;15.30;1.00
13245;DHT22;6689;53.400;12.486;2023-07-22T02:56:15;15.30;1.00
13245;DHT22;6689;53.400;12.486;2023-07-22T02:58:42;15.20;1.00
13245;DHT22;6689;53.400;12.486;2023-07-22T03:01:09;15.20;1.00
13245;DHT22;6689;53.400;12.486;2023-07-22T03:03:38;15.20;1.00
13245;DHT22;6689;53.400;12.486;2023-07-22T03:06:06;15.10;1.00
13245;DHT22;6689;53.400;12.486;2023-07-22T03:08:36;15.10;1.00
13245;DHT22;6689;53.400;12.486;2023-07-22T03:11:04;15.00;1.00
13245;DHT22;6689;53.400;12.486;2023-07-22T03:13:31;15.00;1.00
13245;DHT22;6689;53.400;12.486;2023-07-22T03:15:59;15.00;1.00
13245;DHT22;6689;53.400;12.486;2023-07-22T03:18:29;14.90;1.00
13245;DHT22;6689;53.400;12.486;2023-07-22T03:20:57;14.90;1.00
13245;DHT22;6689;53.400;12.486;2023-07-22T03:23:27;14.90;1.00
13245;DHT22;6689;53.400;12.486;2023-07-22T03:25:56;14.90;1.00
13245;DHT22;6689;53.400;12.486;2023-07-22T03:28:23;14.90;1.00
13245;DHT22;6689;53.400;12.486;2023-07-22T03:30:53;14.80;1.00
13245;DHT22;6689;53.400;12.486;2023-07-22T03:33:20;14.90;1.00
13245;DHT22;6689;53.400;12.486;2023-07-22T03:35:48;14.80;1.00
13245;DHT22;6689;53.400;12.486;2023-07-22T03:38:15;14.80;1.00
13245;DHT22;6689;53.400;12.486;2023-07-22T03:40:42;14.90;1.00
13245;DHT22;6689;53.400;12.486;2023-07-22T03:43:10;14.90;1.00
13245;DHT22;6689;53.400;12.486;2023-07-22T03:45:38;14.90;1.00
13245;DHT22;6689;53.400;12.486;2023-07-22T03:48:05;14.80;1.00
13245;DHT22;6689;53.400;12.486;2023-07-22T03:50:32;14.80;1.00
13245;DHT22;6689;53.400;12.486;2023-07-22T03:52:59;14.80;1.00
13245;DHT22;6689;53.400;12.486;2023-07-22T03:55:27;14.90;1.00
13245;DHT22;6689;53.400;12.486;2023-07-22T03:57:54;14.90;1.00
13245;DHT22;6689;53.400;12.486;2023-07-22T04:00:23;14.90;1.00
13245;DHT22;6689;53.400;12.486;2023-07-22T04:02:50;14.80;1.00
13245;DHT22;6689;53.400;12.486;2023-07-22T04:05:18;14.80;1.00
13245;DHT22;6689;53.400;12.486;2023-07-22T04:07:45;14.80;1.00
13245;DHT22;6689;53.400;12.486;2023-07-22T04:10:12;14.80;1.00
13245;DHT22;6689;53.400;12.486;2023-07-22T04:12:39;14.90;1.00
13245;DHT22;6689;53.400;12.486;2023-07-22T04:15:06;14.90;1.00
13245;DHT22;6689;53.400;12.486;2023-07-22T04:17:36;14.90;1.00
13245;DHT22;6689;53.400;12.486;2023-07-22T04:20:04;14.90;1.00
13245;DHT22;6689;53.400;12.486;2023-07-22T04:22:34;15.00;1.00
13245;DHT22;6689;53.400;12.486;2023-07-22T04:25:01;15.00;1.00
13245;DHT22;6689;53.400;12.486;2023-07-22T04:27:28;15.10;1.00
13245;DHT22;6689;53.400;12.486;2023-07-22T04:29:55;14.80;1.00
13245;DHT22;6689;53.400;12.486;2023-07-22T04:32:24;15.00;1.00
13245;DHT22;6689;53.400;12.486;2023-07-22T04:34:53;15.20;1.00
13245;DHT22;6689;53.400;12.486;2023-07-22T04:37:20;15.60;1.00
13245;DHT22;6689;53.400;12.486;2023-07-22T04:39:49;16.10;1.00
13245;DHT22;6689;53.400;12.486;2023-07-22T04:42:18;16.60;1.00
13245;DHT22;6689;53.400;12.486;2023-07-22T04:44:47;17.00;1.00
13245;DHT22;6689;53.400;12.486;2023-07-22T04:47:14;17.30;1.00
13245;DHT22;6689;53.400;12.486;2023-07-22T04:49:42;17.40;1.00
13245;DHT22;6689;53.400;12.486;2023-07-22T04:52:23;17.40;1.00
13245;DHT22;6689;53.400;12.486;2023-07-22T04:54:50;17.70;1.00
13245;DHT22;6689;53.400;12.486;2023-07-22T04:57:19;17.70;1.00
13245;DHT22;6689;53.400;12.486;2023-07-22T04:59:46;17.80;99.90
13245;DHT22;6689;53.400;12.486;2023-07-22T05:02:14;17.70;99.90
13245;DHT22;6689;53.400;12.486;2023-07-22T05:04:42;17.80;99.90
13245;DHT22;6689;53.400;12.486;2023-07-22T05:07:10;17.80;99.90
13245;DHT22;6689;53.400;12.486;2023-07-22T05:09:39;17.90;99.90
13245;DHT22;6689;53.400;12.486;2023-07-22T05:12:07;17.90;99.90
13245;DHT22;6689;53.400;12.486;2023-07-22T05:14:34;17.80;99.90
13245;DHT22;6689;53.400;12.486;2023-07-22T05:17:01;17.90;99.90
13245;DHT22;6689;53.400;12.486;2023-07-22T05:19:29;18.00;99.90
13245;DHT22;6689;53.400;12.486;2023-07-22T05:21:56;17.60;99.90
13245;DHT22;6689;53.400;12.486;2023-07-22T05:24:23;17.90;99.90
13245;DHT22;6689;53.400;12.486;2023-07-22T05:26:52;17.90;99.90
13245;DHT22;6689;53.400;12.486;2023-07-22T05:29:20;18.00;99.90
13245;DHT22;6689;53.400;12.486;2023-07-22T05:31:47;18.10;99.90
13245;DHT22;6689;53.400;12.486;2023-07-22T05:34:14;18.20;99.90
13245;DHT22;6689;53.400;12.486;2023-07-22T05:36:42;18.20;99.90
13245;DHT22;6689;53.400;12.486;2023-07-22T05:39:09;18.20;99.90
13245;DHT22;6689;53.400;12.486;2023-07-22T05:41:36;18.10;99.90
13245;DHT22;6689;53.400;12.486;2023-07-22T05:44:05;18.20;99.90
13245;DHT22;6689;53.400;12.486;2023-07-22T05:46:33;18.40;99.90
13245;DHT22;6689;53.400;12.486;2023-07-22T05:49:00;18.50;99.90
13245;DHT22;6689;53.400;12.486;2023-07-22T05:51:31;18.60;99.90
13245;DHT22;6689;53.400;12.486;2023-07-22T05:53:59;18.60;99.90
13245;DHT22;6689;53.400;12.486;2023-07-22T05:56:26;18.60;99.90
13245;DHT22;6689;53.400;12.486;2023-07-22T05:58:54;18.70;99.90
13245;DHT22;6689;53.400;12.486;2023-07-22T06:01:23;18.40;99.90
13245;DHT22;6689;53.400;12.486;2023-07-22T06:03:50;18.40;99.90
13245;DHT22;6689;53.400;12.486;2023-07-22T06:06:17;18.50;99.90
13245;DHT22;6689;53.400;12.486;2023-07-22T06:08:45;18.40;99.90
13245;DHT22;6689;53.400;12.486;2023-07-22T06:11:12;18.40;99.90
13245;DHT22;6689;53.400;12.486;2023-07-22T06:13:39;18.50;99.90
13245;DHT22;6689;53.400;12.486;2023-07-22T06:16:06;18.60;99.90
13245;DHT22;6689;53.400;12.486;2023-07-22T06:18:35;18.60;99.90
13245;DHT22;6689;53.400;12.486;2023-07-22T06:21:03;18.70;99.90
13245;DHT22;6689;53.400;12.486;2023-07-22T06:23:31;18.70;99.90
13245;DHT22;6689;53.400;12.486;2023-07-22T06:25:58;18.80;99.90
13245;DHT22;6689;53.400;12.486;2023-07-22T06:28:25;18.70;99.90
13245;DHT22;6689;53.400;12.486;2023-07-22T06:30:53;18.50;99.90
13245;DHT22;6689;53.400;12.486;2023-07-22T06:33:20;18.60;99.90
13245;DHT22;6689;53.400;12.486;2023-07-22T06:35:50;18.80;99.90
13245;DHT22;6689;53.400;12.486;2023-07-22T06:38:17;18.60;99.90
13245;DHT22;6689;53.400;12.486;2023-07-22T06:40:44;18.50;99.90
13245;DHT22;6689;53.400;12.486;2023-07-22T06:43:11;18.50;99.90
13245;DHT22;6689;53.400;12.486;2023-07-22T06:45:39;18.50;99.90
13245;DHT22;6689;53.400;12.486;2023-07-22T06:48:06;18.60;99.90
13245;DHT22;6689;53.400;12.486;2023-07-22T06:50:33;18.40;99.90
13245;DHT22;6689;53.400;12.486;2023-07-22T06:53:02;18.40;99.90
13245;DHT22;6689;53.400;12.486;2023-07-22T06:55:29;18.10;99.90
13245;DHT22;6689;53.400;12.486;2023-07-22T06:57:58;18.30;99.90
13245;DHT22;6689;53.400;12.486;2023-07-22T07:00:25;18.10;99.90
13245;DHT22;6689;53.400;12.486;2023-07-22T07:02:53;17.70;99.90
13245;DHT22;6689;53.400;12.486;2023-07-22T07:05:21;18.00;99.90
13245;DHT22;6689;53.400;12.486;2023-07-22T07:07:49;17.70;99.90
13245;DHT22;6689;53.400;12.486;2023-07-22T07:10:18;17.80;99.90
13245;DHT22;6689;53.400;12.486;2023-07-22T07:12:46;17.90;99.90
13245;DHT22;6689;53.400;12.486;2023-07-22T07:15:13;18.20;99.90
13245;DHT22;6689;53.400;12.486;2023-07-22T07:17:40;18.20;99.90
13245;DHT22;6689;53.400;12.486;2023-07-22T07:20:08;18.30;99.90
13245;DHT22;6689;53.400;12.486;2023-07-22T07:22:36;18.30;99.90
13245;DHT22;6689;53.400;12.486;2023-07-22T07:25:04;18.20;99.90
13245;DHT22;6689;53.400;12.486;2023-07-22T07:27:32;18.30;99.90
13245;DHT22;6689;53.400;12.486;2023-07-22T07:30:00;18.40;99.90
13245;DHT22;6689;53.400;12.486;2023-07-22T07:32:27;18.20;99.90
13245;DHT22;6689;53.400;12.486;2023-07-22T07:34:54;18.30;99.90
13245;DHT22;6689;53.400;12.486;2023-07-22T07:37:22;18.30;99.90
13245;DHT22;6689;53.400;12.486;2023-07-22T07:39:50;18.50;99.90
13245;DHT22;6689;53.400;12.486;2023-07-22T07:42:18;18.30;99.90
13245;DHT22;6689;53.400;12.486;2023-07-22T07:44:48;18.40;99.90
13245;DHT22;6689;53.400;12.486;2023-07-22T07:47:15;18.70;99.90
13245;DHT22;6689;53.400;12.486;2023-07-22T07:49:44;18.50;99.90
13245;DHT22;6689;53.400;12.486;2023-07-22T07:52:11;18.40;99.90
13245;DHT22;6689;53.400;12.486;2023-07-22T07:54:39;18.30;99.90
13245;DHT22;6689;53.400;12.486;2023-07-22T07:57:06;18.60;99.90
13245;DHT22;6689;53.400;12.486;2023-07-22T07:59:33;18.50;99.90
13245;DHT22;6689;53.400;12.486;2023-07-22T08:02:02;18.50;99.90
13245;DHT22;6689;53.400;12.486;2023-07-22T08:04:34;18.60;99.90
13245;DHT22;6689;53.400;12.486;2023-07-22T08:07:02;18.60;99.90
13245;DHT22;6689;53.400;12.486;2023-07-22T08:09:30;18.80;99.90
13245;DHT22;6689;53.400;12.486;2023-07-22T08:11:59;18.90;99.90
13245;DHT22;6689;53.400;12.486;2023-07-22T08:14:28;19.00;99.90
13245;DHT22;6689;53.400;12.486;2023-07-22T08:16:56;19.20;99.90
13245;DHT22;6689;53.400;12.486;2023-07-22T08:19:24;19.20;99.90
13245;DHT22;6689;53.400;12.486;2023-07-22T08:21:52;19.60;99.90
13245;DHT22;6689;53.400;12.486;2023-07-22T08:24:19;19.90;99.90
13245;DHT22;6689;53.400;12.486;2023-07-22T08:26:46;20.00;99.90
13245;DHT22;6689;53.400;12.486;2023-07-22T08:29:13;20.20;99.90
13245;DHT22;6689;53.400;12.486;2023-07-22T08:31:40;20.40;99.90
13245;DHT22;6689;53.400;12.486;2023-07-22T08:34:08;20.40;99.90
13245;DHT22;6689;53.400;12.486;2023-07-22T08:36:37;20.60;99.90
13245;DHT22;6689;53.400;12.486;2023-07-22T08:39:04;20.80;99.90
13245;DHT22;6689;53.400;12.486;2023-07-22T08:41:31;20.80;99.90
13245;DHT22;6689;53.400;12.486;2023-07-22T08:44:00;21.00;99.90
13245;DHT22;6689;53.400;12.486;2023-07-22T08:46:29;20.90;99.90
13245;DHT22;6689;53.400;12.486;2023-07-22T08:48:59;20.90;99.90
13245;DHT22;6689;53.400;12.486;2023-07-22T08:51:27;20.80;99.90
13245;DHT22;6689;53.400;12.486;2023-07-22T08:53:58;21.10;99.90
13245;DHT22;6689;53.400;12.486;2023-07-22T08:56:27;21.10;99.90
13245;DHT22;6689;53.400;12.486;2023-07-22T08:58:55;21.20;99.90
13245;DHT22;6689;53.400;12.486;2023-07-22T09:01:24;20.90;99.90
13245;DHT22;6689;53.400;12.486;2023-07-22T09:03:54;21.30;99.90
13245;DHT22;6689;53.400;12.486;2023-07-22T09:06:22;21.30;99.90
13245;DHT22;6689;53.400;12.486;2023-07-22T09:08:50;21.40;99.90
13245;DHT22;6689;53.400;12.486;2023-07-22T09:11:21;21.10;99.90
13245;DHT22;6689;53.400;12.486;2023-07-22T09:13:50;21.10;99.90
13245;DHT22;6689;53.400;12.486;2023-07-22T09:16:20;21.40;99.90
13245;DHT22;6689;53.400;12.486;2023-07-22T09:18:48;21.50;99.90
13245;DHT22;6689;53.400;12.486;2023-07-22T09:21:15;21.80;99.90
13245;DHT22;6689;53.400;12.486;2023-07-22T09:23:43;21.60;99.90
13245;DHT22;6689;53.400;12.486;2023-07-22T09:26:12;21.90;99.90
13245;DHT22;6689;53.400;12.486;2023-07-22T09:28:52;22.10;99.90
13245;DHT22;6689;53.400;12.486;2023-07-22T09:31:20;22.00;99.90
13245;DHT22;6689;53.400;12.486;2023-07-22T09:33:48;21.80;99.90
13245;DHT22;6689;53.400;12.486;2023-07-22T09:36:16;21.90;99.90
13245;DHT22;6689;53.400;12.486;2023-07-22T09:38:44;21.90;99.90
13245;DHT22;6689;53.400;12.486;2023-07-22T09:41:12;22.10;99.90
13245;DHT22;6689;53.400;12.486;2023-07-22T09:43:47;21.70;99.90
13245;DHT22;6689;53.400;12.486;2023-07-22T09:46:16;22.00;99.90
13245;DHT22;6689;53.400;12.486;2023-07-22T09:48:44;22.00;99.90
13245;DHT22;6689;53.400;12.486;2023-07-22T09:51:13;22.10;99.90
13245;DHT22;6689;53.400;12.486;2023-07-22T09:53:46;22.00;99.90
13245;DHT22;6689;53.400;12.486;2023-07-22T09:56:14;22.30;99.90
13245;DHT22;6689;53.400;12.486;2023-07-22T09:58:41;21.90;99.90
13245;DHT22;6689;53.400;12.486;2023-07-22T10:01:12;22.00;99.90
13245;DHT22;6689;53.400;12.486;2023-07-22T10:03:43;22.00;99.90
13245;DHT22;6689;53.400;12.486;2023-07-22T10:06:13;21.60;99.90
13245;DHT22;6689;53.400;12.486;2023-07-22T10:08:44;21.50;99.90
13245;DHT22;6689;53.400;12.486;2023-07-22T10:11:14;21.50;99.90
13245;DHT22;6689;53.400;12.486;2023-07-22T10:13:42;21.70;99.90
13245;DHT22;6689;53.400;12.486;2023-07-22T10:16:10;21.90;99.90
13245;DHT22;6689;53.400;12.486;2023-07-22T10:18:38;22.00;99.90
13245;DHT22;6689;53.400;12.486;2023-07-22T10:21:09;22.30;99.90
13245;DHT22;6689;53.400;12.486;2023-07-22T10:23:36;22.30;99.90
13245;DHT22;6689;53.400;12.486;2023-07-22T10:26:05;21.80;99.90
13245;DHT22;6689;53.400;12.486;2023-07-22T10:28:33;21.80;99.90
13245;DHT22;6689;53.400;12.486;2023-07-22T10:31:00;21.90;99.90
13245;DHT22;6689;53.400;12.486;2023-07-22T10:33:28;22.20;99.90
13245;DHT22;6689;53.400;12.486;2023-07-22T10:36:04;22.20;99.90
13245;DHT22;6689;53.400;12.486;2023-07-22T10:38:34;22.10;99.90
13245;DHT22;6689;53.400;12.486;2023-07-22T10:41:11;22.30;99.90
13245;DHT22;6689;53.400;12.486;2023-07-22T10:43:39;22.20;99.90
13245;DHT22;6689;53.400;12.486;2023-07-22T10:46:09;22.40;99.90
13245;DHT22;6689;53.400;12.486;2023-07-22T10:48:40;22.40;99.90
13245;DHT22;6689;53.400;12.486;2023-07-22T10:51:10;22.60;99.90
13245;DHT22;6689;53.400;12.486;2023-07-22T10:53:43;22.50;99.90
13245;DHT22;6689;53.400;12.486;2023-07-22T10:56:13;22.50;99.90
13245;DHT22;6689;53.400;12.486;2023-07-22T10:58:58;22.40;99.90
13245;DHT22;6689;53.400;12.486;2023-07-22T11:01:35;22.40;99.90
13245;DHT22;6689;53.400;12.486;2023-07-22T11:04:14;22.40;99.90
13245;DHT22;6689;53.400;12.486;2023-07-22T11:06:52;22.60;99.90
13245;DHT22;6689;53.400;12.486;2023-07-22T11:09:38;22.60;99.90
13245;DHT22;6689;53.400;12.486;2023-07-22T11:12:07;23.00;99.90
13245;DHT22;6689;53.400;12.486;2023-07-22T11:14:39;23.20;99.90
13245;DHT22;6689;53.400;12.486;2023-07-22T11:17:07;23.30;99.90
13245;DHT22;6689;53.400;12.486;2023-07-22T11:19:35;23.50;99.90
13245;DHT22;6689;53.400;12.486;2023-07-22T11:22:02;23.50;99.90
13245;DHT22;6689;53.400;12.486;2023-07-22T11:24:32;23.50;99.90
13245;DHT22;6689;53.400;12.486;2023-07-22T11:27:03;23.70;99.90
13245;DHT22;6689;53.400;12.486;2023-07-22T11:29:31;23.70;99.90
13245;DHT22;6689;53.400;12.486;2023-07-22T11:31:59;23.70;99.90
13245;DHT22;6689;53.400;12.486;2023-07-22T11:34:27;23.70;99.90
13245;DHT22;6689;53.400;12.486;2023-07-22T11:36:55;23.60;99.90
13245;DHT22;6689;53.400;12.486;2023-07-22T11:39:25;23.60;99.90
13245;DHT22;6689;53.400;12.486;2023-07-22T11:41:53;23.80;99.90
13245;DHT22;6689;53.400;12.486;2023-07-22T11:44:27;23.90;99.90
13245;DHT22;6689;53.400;12.486;2023-07-22T11:46:56;24.10;99.90
13245;DHT22;6689;53.400;12.486;2023-07-22T11:49:25;24.20;99.90
13245;DHT22;6689;53.400;12.486;2023-07-22T11:51:58;24.30;99.90
13245;DHT22;6689;53.400;12.486;2023-07-22T11:54:27;24.40;99.90
13245;DHT22;6689;53.400;12.486;2023-07-22T11:56:54;24.40;99.90
13245;DHT22;6689;53.400;12.486;2023-07-22T11:59:37;24.30;99.90
13245;DHT22;6689;53.400;12.486;2023-07-22T12:02:05;24.40;99.90
13245;DHT22;6689;53.400;12.486;2023-07-22T12:04:33;24.50;99.90
13245;DHT22;6689;53.400;12.486;2023-07-22T12:07:01;24.50;99.90
13245;DHT22;6689;53.400;12.486;2023-07-22T12:09:31;24.00;99.90
13245;DHT22;6689;53.400;12.486;2023-07-22T12:11:59;23.90;99.90
13245;DHT22;6689;53.400;12.486;2023-07-22T12:14:34;24.10;99.90
13245;DHT22;6689;53.400;12.486;2023-07-22T12:17:07;24.20;99.90
13245;DHT22;6689;53.400;12.486;2023-07-22T12:19:35;24.40;99.90
13245;DHT22;6689;53.400;12.486;2023-07-22T12:22:02;24.60;99.90
13245;DHT22;6689;53.400;12.486;2023-07-22T12:24:30;24.70;99.90
13245;DHT22;6689;53.400;12.486;2023-07-22T12:27:00;24.90;99.90
13245;DHT22;6689;53.400;12.486;2023-07-22T12:29:27;25.20;99.90
13245;DHT22;6689;53.400;12.486;2023-07-22T12:31:54;25.10;99.90
13245;DHT22;6689;53.400;12.486;2023-07-22T12:34:28;25.10;99.90
13245;DHT22;6689;53.400;12.486;2023-07-22T12:36:55;24.90;99.90
13245;DHT22;6689;53.400;12.486;2023-07-22T12:39:22;24.80;99.90
13245;DHT22;6689;53.400;12.486;2023-07-22T12:41:50;24.70;99.90
13245;DHT22;6689;53.400;12.486;2023-07-22T12:44:17;24.60;99.90
13245;DHT22;6689;53.400;12.486;2023-07-22T12:46:45;24.80;99.90
13245;DHT22;6689;53.400;12.486;2023-07-22T12:49:12;24.90;99.90
13245;DHT22;6689;53.400;12.486;2023-07-22T12:51:41;25.10;99.90
13245;DHT22;6689;53.400;12.486;2023-07-22T12:54:08;25.20;99.90
13245;DHT22;6689;53.400;12.486;2023-07-22T12:56:35;25.30;99.90
13245;DHT22;6689;53.400;12.486;2023-07-22T12:59:02;25.50;99.90
13245;DHT22;6689;53.400;12.486;2023-07-22T13:01:30;25.20;99.90
13245;DHT22;6689;53.400;12.486;2023-07-22T13:04:00;25.50;99.90
13245;DHT22;6689;53.400;12.486;2023-07-22T13:06:27;25.70;99.90
13245;DHT22;6689;53.400;12.486;2023-07-22T13:08:56;25.50;99.90
13245;DHT22;6689;53.400;12.486;2023-07-22T13:11:23;25.10;99.90
13245;DHT22;6689;53.400;12.486;2023-07-22T13:13:51;25.00;99.90
13245;DHT22;6689;53.400;12.486;2023-07-22T13:16:18;24.60;99.90
13245;DHT22;6689;53.400;12.486;2023-07-22T13:18:46;24.60;99.90
13245;DHT22;6689;53.400;12.486;2023-07-22T13:21:13;24.40;99.90
13245;DHT22;6689;53.400;12.486;2023-07-22T13:23:42;24.20;99.90
13245;DHT22;6689;53.400;12.486;2023-07-22T13:26:11;24.20;99.90
13245;DHT22;6689;53.400;12.486;2023-07-22T13:28:38;24.20;99.90
13245;DHT22;6689;53.400;12.486;2023-07-22T13:31:05;24.20;99.90
13245;DHT22;6689;53.400;12.486;2023-07-22T13:33:33;24.00;99.90
13245;DHT22;6689;53.400;12.486;2023-07-22T13:36:02;23.80;99.90
13245;DHT22;6689;53.400;12.486;2023-07-22T13:38:29;23.80;99.90
13245;DHT22;6689;53.400;12.486;2023-07-22T13:40:56;23.60;99.90
13245;DHT22;6689;53.400;12.486;2023-07-22T13:43:25;23.60;99.90
13245;DHT22;6689;53.400;12.486;2023-07-22T13:45:54;23.80;99.90
13245;DHT22;6689;53.400;12.486;2023-07-22T13:48:21;24.00;99.90
13245;DHT22;6689;53.400;12.486;2023-07-22T13:50:50;24.30;99.90
13245;DHT22;6689;53.400;12.486;2023-07-22T13:53:17;24.40;99.90
13245;DHT22;6689;53.400;12.486;2023-07-22T13:55:45;24.30;99.90
13245;DHT22;6689;53.400;12.486;2023-07-22T13:58:12;24.20;99.90
13245;DHT22;6689;53.400;12.486;2023-07-22T14:00:41;24.20;99.90
13245;DHT22;6689;53.400;12.486;2023-07-22T14:03:08;24.40;99.90
13245;DHT22;6689;53.400;12.486;2023-07-22T14:05:35;24.50;99.90
13245;DHT22;6689;53.400;12.486;2023-07-22T14:08:03;24.40;99.90
13245;DHT22;6689;53.400;12.486;2023-07-22T14:10:31;24.20;99.90
13245;DHT22;6689;53.400;12.486;2023-07-22T14:12:59;24.10;99.90
13245;DHT22;6689;53.400;12.486;2023-07-22T14:15:26;24.10;99.90
13245;DHT22;6689;53.400;12.486;2023-07-22T14:17:55;24.20;99.90
13245;DHT22;6689;53.400;12.486;2023-07-22T14:20:23;24.10;99.90
13245;DHT22;6689;53.400;12.486;2023-07-22T14:22:51;24.00;99.90
13245;DHT22;6689;53.400;12.486;2023-07-22T14:25:18;23.90;99.90
13245;DHT22;6689;53.400;12.486;2023-07-22T14:27:47;23.90;99.90
13245;DHT22;6689;53.400;12.486;2023-07-22T14:30:16;23.80;99.90
13245;DHT22;6689;53.400;12.486;2023-07-22T14:32:44;24.00;99.90
13245;DHT22;6689;53.400;12.486;2023-07-22T14:35:13;24.20;99.90
13245;DHT22;6689;53.400;12.486;2023-07-22T14:37:41;24.40;99.90
13245;DHT22;6689;53.400;12.486;2023-07-22T14:40:09;24.40;99.90
13245;DHT22;6689;53.400;12.486;2023-07-22T14:42:37;24.40;99.90
13245;DHT22;6689;53.400;12.486;2023-07-22T14:45:06;24.10;99.90
13245;DHT22;6689;53.400;12.486;2023-07-22T14:47:33;24.00;99.90
13245;DHT22;6689;53.400;12.486;2023-07-22T14:50:00;23.90;99.90
13245;DHT22;6689;53.400;12.486;2023-07-22T14:52:32;23.80;99.90
13245;DHT22;6689;53.400;12.486;2023-07-22T14:55:00;23.70;99.90
13245;DHT22;6689;53.400;12.486;2023-07-22T14:57:28;23.60;99.90
13245;DHT22;6689;53.400;12.486;2023-07-22T14:59:56;23.50;99.90
13245;DHT22;6689;53.400;12.486;2023-07-22T15:02:24;23.30;99.90
13245;DHT22;6689;53.400;12.486;2023-07-22T15:04:51;23.10;99.90
13245;DHT22;6689;53.400;12.486;2023-07-22T15:07:19;23.10;99.90
13245;DHT22;6689;53.400;12.486;2023-07-22T15:09:47;22.90;99.90
13245;DHT22;6689;53.400;12.486;2023-07-22T15:12:14;22.90;99.90
13245;DHT22;6689;53.400;12.486;2023-07-22T15:14:43;22.80;99.90
13245;DHT22;6689;53.400;12.486;2023-07-22T15:17:10;22.80;99.90
13245;DHT22;6689;53.400;12.486;2023-07-22T15:19:38;22.80;99.90
13245;DHT22;6689;53.400;12.486;2023-07-22T15:22:05;22.70;99.90
13245;DHT22;6689;53.400;12.486;2023-07-22T15:24:33;22.70;99.90
13245;DHT22;6689;53.400;12.486;2023-07-22T15:27:02;22.70;99.90
13245;DHT22;6689;53.400;12.486;2023-07-22T15:29:29;22.70;99.90
13245;DHT22;6689;53.400;12.486;2023-07-22T15:31:57;22.70;99.90
13245;DHT22;6689;53.400;12.486;2023-07-22T15:34:27;22.60;99.90
13245;DHT22;6689;53.400;12.486;2023-07-22T15:36:56;22.60;99.90
13245;DHT22;6689;53.400;12.486;2023-07-22T15:39:23;22.60;99.90
13245;DHT22;6689;53.400;12.486;2023-07-22T15:41:50;22.70;99.90